createdAt,value
2019-01-14T00:01:01.432Z,1.60
2019-01-14T00:03:29.059Z,1.40
2019-01-14T00:05:57.091Z,1.60
2019-01-14T00:08:25.346Z,2.00
2019-01-14T00:10:52.854Z,1.83
2019-01-14T00:13:20.349Z,1.30
2019-01-14T00:15:47.835Z,1.80
2019-01-14T00:18:15.621Z,1.47
2019-01-14T00:20:43.114Z,1.70
2019-01-14T00:23:10.664Z,1.60
2019-01-14T00:25:38.734Z,1.40
2019-01-14T00:28:06.630Z,1.93
2019-01-14T00:30:34.603Z,1.57
2019-01-14T00:33:02.667Z,1.53
2019-01-14T00:35:30.150Z,1.83
2019-01-14T00:37:57.918Z,1.60
2019-01-14T00:40:25.484Z,2.20
2019-01-14T00:42:53.571Z,1.63
2019-01-14T00:45:21.104Z,2.20
2019-01-14T00:47:48.595Z,1.50
2019-01-14T00:50:16.157Z,1.60
2019-01-14T00:52:43.822Z,2.13
2019-01-14T00:55:11.514Z,3.53
2019-01-14T00:57:39.722Z,2.33
2019-01-14T01:00:14.378Z,2.20
2019-01-14T01:02:41.978Z,2.07
2019-01-14T01:05:09.855Z,1.70
2019-01-14T01:07:37.342Z,2.00
2019-01-14T01:10:05.830Z,3.07
2019-01-14T01:12:34.012Z,3.60
2019-01-14T01:15:02.280Z,3.60
2019-01-14T01:17:32.929Z,3.33
2019-01-14T01:20:00.422Z,2.57
2019-01-14T01:22:28.238Z,1.50
2019-01-14T01:24:56.010Z,1.50
2019-01-14T01:27:23.868Z,1.73
2019-01-14T01:29:51.709Z,1.60
2019-01-14T01:32:19.486Z,1.90
2019-01-14T01:34:46.992Z,1.43
2019-01-14T01:37:15.350Z,1.53
2019-01-14T01:39:43.058Z,1.90
2019-01-14T01:42:11.111Z,1.77
2019-01-14T01:44:39.334Z,1.40
2019-01-14T01:47:07.708Z,1.80
2019-01-14T01:49:35.348Z,1.43
2019-01-14T01:52:03.187Z,1.77
2019-01-14T01:54:31.068Z,2.30
2019-01-14T01:56:59.199Z,1.50
2019-01-14T01:59:27.340Z,1.70
2019-01-14T02:01:54.863Z,1.57
2019-01-14T02:04:22.435Z,1.90
2019-01-14T02:06:50.043Z,1.97
2019-01-14T02:09:17.917Z,1.60
2019-01-14T02:11:46.068Z,2.10
2019-01-14T02:14:13.590Z,1.70
2019-01-14T02:16:41.931Z,1.50
2019-01-14T02:19:09.773Z,1.37
2019-01-14T02:21:37.582Z,1.80
2019-01-14T02:24:05.417Z,1.80
2019-01-14T02:26:33.334Z,1.97
2019-01-14T02:29:01.166Z,2.13
2019-01-14T02:31:28.969Z,1.80
2019-01-14T02:33:57.182Z,2.23
2019-01-14T02:36:24.702Z,2.00
2019-01-14T02:38:52.512Z,1.67
2019-01-14T02:41:20.431Z,1.53
2019-01-14T02:43:48.937Z,2.40
2019-01-14T02:46:16.848Z,2.10
2019-01-14T02:48:44.606Z,2.20
2019-01-14T02:51:12.962Z,1.83
2019-01-14T02:53:40.754Z,2.10
2019-01-14T02:56:08.803Z,1.83
2019-01-14T02:58:36.684Z,2.30
2019-01-14T03:01:04.876Z,1.80
2019-01-14T03:03:32.798Z,2.10
2019-01-14T03:06:00.356Z,3.63
2019-01-14T03:08:27.926Z,3.43
2019-01-14T03:10:55.792Z,3.07
2019-01-14T03:13:23.681Z,5.10
2019-01-14T03:15:51.550Z,8.73
2019-01-14T03:18:19.006Z,7.83
2019-01-14T03:20:46.914Z,3.57
2019-01-14T03:23:15.005Z,2.60
2019-01-14T03:25:42.912Z,2.20
2019-01-14T03:28:10.492Z,2.40
2019-01-14T03:30:38.398Z,1.57
2019-01-14T03:33:06.343Z,2.30
2019-01-14T03:35:33.979Z,1.60
2019-01-14T03:38:02.141Z,1.90
2019-01-14T03:40:30.005Z,1.63
2019-01-14T03:42:57.453Z,1.50
2019-01-14T03:45:25.859Z,2.07
2019-01-14T03:47:54.094Z,2.77
2019-01-14T03:50:22.656Z,1.93
2019-01-14T03:52:50.524Z,2.20
2019-01-14T03:55:18.058Z,2.07
2019-01-14T03:57:45.544Z,2.70
2019-01-14T04:00:14.134Z,2.10
2019-01-14T04:02:41.928Z,2.33
2019-01-14T04:05:10.138Z,1.60
2019-01-14T04:07:37.612Z,1.63
2019-01-14T04:10:07.440Z,1.67
2019-01-14T04:12:35.234Z,1.80
2019-01-14T04:15:03.246Z,1.70
2019-01-14T04:17:31.596Z,1.30
2019-01-14T04:19:59.526Z,2.30
2019-01-14T04:22:27.431Z,2.00
2019-01-14T04:24:55.079Z,1.90
2019-01-14T04:27:22.915Z,1.83
2019-01-14T04:29:50.839Z,1.90
2019-01-14T04:32:18.963Z,1.77
2019-01-14T04:34:46.586Z,2.83
2019-01-14T04:37:21.340Z,1.83
2019-01-14T04:39:44.574Z,2.20
2019-01-14T04:42:12.758Z,2.30
2019-01-14T04:44:40.541Z,2.13
2019-01-14T04:47:08.302Z,2.53
2019-01-14T04:49:36.189Z,2.37
2019-01-14T04:52:04.118Z,1.90
2019-01-14T04:54:31.610Z,1.17
2019-01-14T04:56:59.154Z,1.50
2019-01-14T04:59:26.752Z,3.70
2019-01-14T05:01:54.674Z,2.90
2019-01-14T05:04:22.185Z,3.40
2019-01-14T05:06:49.979Z,2.80
2019-01-14T05:09:17.516Z,3.37
2019-01-14T05:11:45.330Z,5.23
2019-01-14T05:14:12.911Z,4.30
2019-01-14T05:16:40.726Z,3.70
2019-01-14T05:19:08.498Z,3.00
2019-01-14T05:21:36.428Z,2.83
2019-01-14T05:24:04.726Z,3.37
2019-01-14T05:26:32.488Z,2.20
2019-01-14T05:29:00.633Z,3.03
2019-01-14T05:31:28.210Z,2.23
2019-01-14T05:33:55.683Z,1.90
2019-01-14T05:36:23.739Z,2.23
2019-01-14T05:38:51.491Z,1.53
2019-01-14T05:41:19.310Z,2.10
2019-01-14T05:43:47.058Z,1.80
2019-01-14T05:46:15.026Z,1.67
2019-01-14T05:48:42.471Z,1.93
2019-01-14T05:51:10.390Z,1.93
2019-01-14T05:53:38.449Z,2.47
2019-01-14T05:56:06.594Z,2.33
2019-01-14T05:58:34.439Z,2.50
2019-01-14T06:01:02.442Z,1.80
2019-01-14T06:03:30.062Z,2.23
2019-01-14T06:05:57.599Z,6.00
2019-01-14T06:08:25.056Z,3.70
2019-01-14T06:10:52.853Z,2.90
2019-01-14T06:13:20.372Z,1.60
2019-01-14T06:15:48.288Z,2.87
2019-01-14T06:18:15.862Z,3.83
2019-01-14T06:20:43.762Z,2.53
2019-01-14T06:23:11.548Z,2.07
2019-01-14T06:25:40.912Z,2.43
2019-01-14T06:28:08.591Z,2.50
2019-01-14T06:30:36.135Z,4.17
2019-01-14T06:33:04.283Z,3.80
2019-01-14T06:35:31.766Z,3.17
2019-01-14T06:37:59.258Z,3.20
2019-01-14T06:40:27.112Z,4.60
2019-01-14T06:42:54.963Z,3.87
2019-01-14T06:45:22.534Z,3.87
2019-01-14T06:47:50.306Z,3.70
2019-01-14T06:50:18.698Z,4.20
2019-01-14T06:52:48.642Z,4.93
2019-01-14T06:55:17.074Z,4.00
2019-01-14T06:57:44.950Z,3.90
2019-01-14T07:00:16.545Z,2.40
2019-01-14T07:02:45.672Z,2.07
2019-01-14T07:05:14.694Z,3.50
2019-01-14T07:07:43.766Z,2.20
2019-01-14T07:10:14.502Z,3.83
2019-01-14T07:12:42.691Z,2.60
2019-01-14T07:15:10.642Z,3.33
2019-01-14T07:17:38.535Z,2.90
2019-01-14T07:20:06.351Z,3.30
2019-01-14T07:22:34.623Z,3.10
2019-01-14T07:25:02.586Z,4.03
2019-01-14T07:27:30.106Z,2.83
2019-01-14T07:29:58.166Z,4.80
2019-01-14T07:32:26.017Z,4.23
2019-01-14T07:34:54.353Z,2.40
2019-01-14T07:37:21.950Z,2.53
2019-01-14T07:39:50.021Z,3.03
2019-01-14T07:42:17.894Z,2.53
2019-01-14T07:44:45.791Z,2.57
2019-01-14T07:47:13.731Z,4.50
2019-01-14T07:49:41.319Z,3.00
2019-01-14T07:52:09.565Z,1.93
2019-01-14T07:54:37.114Z,2.80
2019-01-14T07:57:05.150Z,2.40
2019-01-14T07:59:32.660Z,2.90
2019-01-14T08:02:00.495Z,2.10
2019-01-14T08:04:28.070Z,2.27
2019-01-14T08:06:56.062Z,2.87
2019-01-14T08:09:23.663Z,2.03
2019-01-14T08:11:52.066Z,2.30
2019-01-14T08:14:38.587Z,2.30
2019-01-14T08:17:06.422Z,2.93
2019-01-14T08:19:33.901Z,2.57
2019-01-14T08:22:02.112Z,1.53
2019-01-14T08:24:30.423Z,2.00
2019-01-14T08:26:58.264Z,2.33
2019-01-14T08:29:26.021Z,2.30
2019-01-14T08:31:53.584Z,2.40
2019-01-14T08:34:21.528Z,3.00
2019-01-14T08:36:49.352Z,3.13
2019-01-14T08:39:17.185Z,2.30
2019-01-14T08:41:52.351Z,2.53
2019-01-14T08:44:22.484Z,3.23
2019-01-14T08:46:50.682Z,2.13
2019-01-14T08:49:18.867Z,2.20
2019-01-14T08:51:46.350Z,3.23
2019-01-14T08:54:14.134Z,5.20
2019-01-14T08:56:41.857Z,4.03
2019-01-14T08:59:09.882Z,3.57
2019-01-14T09:01:37.958Z,3.60
2019-01-14T09:04:05.702Z,2.90
2019-01-14T09:06:33.234Z,2.50
2019-01-14T09:09:01.095Z,2.27
2019-01-14T09:11:28.579Z,3.33
2019-01-14T09:13:56.166Z,3.00
2019-01-14T09:16:24.187Z,3.40
2019-01-14T09:18:51.698Z,3.50
2019-01-14T09:21:19.624Z,2.87
2019-01-14T09:23:47.451Z,3.17
2019-01-14T09:26:15.254Z,3.57
2019-01-14T09:28:43.139Z,3.77
2019-01-14T09:31:10.983Z,3.90
2019-01-14T09:33:38.855Z,3.47
2019-01-14T09:36:06.715Z,3.87
2019-01-14T09:38:36.030Z,2.87
2019-01-14T09:41:04.181Z,3.30
2019-01-14T09:43:31.747Z,2.90
2019-01-14T09:45:59.247Z,4.10
2019-01-14T09:48:27.035Z,2.97
2019-01-14T09:50:54.798Z,3.03
2019-01-14T09:53:22.294Z,3.67
2019-01-14T09:55:49.998Z,3.20
2019-01-14T09:58:17.495Z,3.47
2019-01-14T10:00:45.587Z,2.93
2019-01-14T10:03:13.092Z,2.63
2019-01-14T10:05:40.859Z,2.70
2019-01-14T10:08:08.347Z,2.10
2019-01-14T10:10:36.118Z,2.10
2019-01-14T10:13:03.613Z,2.87
2019-01-14T10:15:31.786Z,2.30
2019-01-14T10:18:01.890Z,3.00
2019-01-14T10:20:29.685Z,4.90
2019-01-14T10:22:58.137Z,2.27
2019-01-14T10:25:25.574Z,2.37
2019-01-14T10:27:53.372Z,2.47
2019-01-14T10:30:20.930Z,3.27
2019-01-14T10:32:48.526Z,2.20
2019-01-14T10:35:16.038Z,2.30
2019-01-14T10:37:43.602Z,2.87
2019-01-14T10:40:12.415Z,2.23
2019-01-14T10:42:40.026Z,2.33
2019-01-14T10:45:11.431Z,2.30
2019-01-14T10:47:39.174Z,2.20
2019-01-14T10:50:07.983Z,2.23
2019-01-14T10:52:35.417Z,2.90
2019-01-14T10:55:03.674Z,2.43
2019-01-14T10:57:31.178Z,1.60
2019-01-14T10:59:58.949Z,1.83
2019-01-14T11:02:26.407Z,1.93
2019-01-14T11:04:54.735Z,1.97
2019-01-14T11:07:22.282Z,1.73
2019-01-14T11:09:49.951Z,2.13
2019-01-14T11:12:17.958Z,1.77
2019-01-14T11:14:45.422Z,1.97
2019-01-14T11:17:13.323Z,2.10
2019-01-14T11:19:40.840Z,1.70
2019-01-14T11:22:08.762Z,1.63
2019-01-14T11:24:49.402Z,1.90
2019-01-14T11:27:18.849Z,1.83
2019-01-14T11:29:53.083Z,1.83
2019-01-14T11:32:21.582Z,1.50
2019-01-14T11:34:49.532Z,1.40
2019-01-14T11:37:17.650Z,1.00
2019-01-14T11:39:45.538Z,1.17
2019-01-14T11:42:13.318Z,1.10
2019-01-14T11:44:41.239Z,1.20
2019-01-14T11:47:09.031Z,1.37
2019-01-14T11:49:36.778Z,1.03
2019-01-14T11:52:04.484Z,0.90
2019-01-14T11:54:32.058Z,2.30
2019-01-14T11:56:59.862Z,4.30
2019-01-14T11:59:30.918Z,2.10
2019-01-14T12:01:58.691Z,2.37
2019-01-14T12:04:26.629Z,1.50
2019-01-14T12:06:54.524Z,1.10
2019-01-14T12:09:22.392Z,1.00
2019-01-14T12:11:49.882Z,1.67
2019-01-14T12:14:17.382Z,3.03
2019-01-14T12:16:45.258Z,1.40
2019-01-14T12:19:13.038Z,1.20
2019-01-14T12:21:40.898Z,1.17
2019-01-14T12:24:08.669Z,1.50
2019-01-14T12:26:36.550Z,1.60
2019-01-14T12:29:04.351Z,1.20
2019-01-14T12:31:32.082Z,1.00
2019-01-14T12:33:59.958Z,2.30
2019-01-14T12:36:27.726Z,1.50
2019-01-14T12:38:55.826Z,1.93
2019-01-14T12:41:23.603Z,1.83
2019-01-14T12:43:51.053Z,2.40
2019-01-14T12:46:18.993Z,1.90
2019-01-14T12:48:46.770Z,2.17
2019-01-14T12:51:14.315Z,4.20
2019-01-14T12:53:42.594Z,3.07
2019-01-14T12:56:10.189Z,2.60
2019-01-14T12:58:38.103Z,1.87
2019-01-14T13:01:06.246Z,1.93
2019-01-14T13:03:34.003Z,1.57
2019-01-14T13:06:02.161Z,1.30
2019-01-14T13:08:29.627Z,1.43
2019-01-14T13:10:57.622Z,1.87
2019-01-14T13:13:25.472Z,1.80
2019-01-14T13:15:52.998Z,1.73
2019-01-14T13:18:20.714Z,2.70
2019-01-14T13:20:48.851Z,1.67
2019-01-14T13:23:17.164Z,1.57
2019-01-14T13:25:45.334Z,2.33
2019-01-14T13:28:12.846Z,1.57
2019-01-14T13:30:40.383Z,1.53
2019-01-14T13:33:07.986Z,1.40
2019-01-14T13:35:35.921Z,1.40
2019-01-14T13:38:03.766Z,1.57
2019-01-14T13:40:31.222Z,2.17
2019-01-14T13:42:58.709Z,1.70
2019-01-14T13:45:26.272Z,2.30
2019-01-14T13:47:54.142Z,2.23
2019-01-14T13:50:24.119Z,1.90
2019-01-14T13:52:51.683Z,1.53
2019-01-14T13:55:20.085Z,1.67
2019-01-14T13:57:47.959Z,2.30
2019-01-14T14:00:20.251Z,2.67
2019-01-14T14:02:48.049Z,2.10
2019-01-14T14:05:15.900Z,1.93
2019-01-14T14:07:43.496Z,4.07
2019-01-14T14:10:17.638Z,3.07
2019-01-14T14:12:45.673Z,2.77
2019-01-14T14:15:13.374Z,2.83
2019-01-14T14:17:40.882Z,2.90
2019-01-14T14:20:10.822Z,2.80
2019-01-14T14:22:38.682Z,2.37
2019-01-14T14:25:06.802Z,2.60
2019-01-14T14:27:34.373Z,1.83
2019-01-14T14:30:03.551Z,2.03
2019-01-14T14:32:31.351Z,1.87
2019-01-14T14:34:58.927Z,2.27
2019-01-14T14:37:26.451Z,2.20
2019-01-14T14:39:54.240Z,1.90
2019-01-14T14:42:22.466Z,3.03
2019-01-14T14:44:50.371Z,1.90
2019-01-14T14:47:18.168Z,3.20
2019-01-14T14:49:46.231Z,1.97
2019-01-14T14:52:14.114Z,3.53
2019-01-14T14:54:42.281Z,4.63
2019-01-14T14:57:10.436Z,3.00
2019-01-14T14:59:37.926Z,2.33
2019-01-14T15:02:05.739Z,2.40
2019-01-14T15:04:33.603Z,2.10
2019-01-14T15:07:01.491Z,2.30
2019-01-14T15:09:31.757Z,2.43
2019-01-14T15:11:59.026Z,2.30
2019-01-14T15:14:26.843Z,3.83
2019-01-14T15:16:54.642Z,3.60
2019-01-14T15:19:22.370Z,3.50
2019-01-14T15:21:50.233Z,3.40
2019-01-14T15:24:18.048Z,2.67
2019-01-14T15:26:45.921Z,2.53
2019-01-14T15:29:14.140Z,3.90
2019-01-14T15:31:41.990Z,3.07
2019-01-14T15:34:09.726Z,2.17
2019-01-14T15:36:37.210Z,2.67
2019-01-14T15:39:08.799Z,2.20
2019-01-14T15:41:36.423Z,2.80
2019-01-14T15:44:04.758Z,2.43
2019-01-14T15:46:32.537Z,1.97
2019-01-14T15:49:00.670Z,2.40
2019-01-14T15:51:28.484Z,1.80
2019-01-14T15:53:56.546Z,1.77
2019-01-14T15:56:24.662Z,2.93
2019-01-14T15:58:52.483Z,1.80
2019-01-14T16:01:20.338Z,1.73
2019-01-14T16:03:48.253Z,1.47
2019-01-14T16:06:15.743Z,1.73
2019-01-14T16:08:43.546Z,2.07
2019-01-14T16:11:11.092Z,1.70
2019-01-14T16:13:38.602Z,1.63
2019-01-14T16:16:06.346Z,1.50
2019-01-14T16:18:34.186Z,1.67
2019-01-14T16:21:02.263Z,2.00
2019-01-14T16:23:30.104Z,2.00
2019-01-14T16:25:57.590Z,2.00
2019-01-14T16:28:25.331Z,2.13
2019-01-14T16:30:53.095Z,2.17
2019-01-14T16:33:20.726Z,1.50
2019-01-14T16:35:48.294Z,1.97
2019-01-14T16:38:15.776Z,2.00
2019-01-14T16:40:43.283Z,2.60
2019-01-14T16:43:10.876Z,2.00
2019-01-14T16:45:38.734Z,2.20
2019-01-14T16:48:07.166Z,3.03
2019-01-14T16:50:34.643Z,2.50
2019-01-14T16:53:02.205Z,3.23
2019-01-14T16:55:51.891Z,2.77
2019-01-14T16:58:20.111Z,2.80
2019-01-14T17:00:47.787Z,3.80
2019-01-14T17:03:15.599Z,3.20
2019-01-14T17:05:44.066Z,3.03
2019-01-14T17:08:11.730Z,10.60
2019-01-14T17:10:39.673Z,2.60
2019-01-14T17:13:07.599Z,2.17
2019-01-14T17:15:35.783Z,2.70
2019-01-14T17:18:04.090Z,2.30
2019-01-14T17:20:32.278Z,2.50
2019-01-14T17:22:59.927Z,2.43
2019-01-14T17:25:27.551Z,3.53
2019-01-14T17:27:55.687Z,2.60
2019-01-14T17:30:23.223Z,3.00
2019-01-14T17:32:50.851Z,3.03
2019-01-14T17:35:18.476Z,2.37
2019-01-14T17:37:46.091Z,2.10
2019-01-14T17:40:15.542Z,3.43
2019-01-14T17:42:43.778Z,2.23
2019-01-14T17:45:11.627Z,2.17
2019-01-14T17:47:39.114Z,2.20
2019-01-14T17:50:09.608Z,2.10
2019-01-14T17:52:37.447Z,3.10
2019-01-14T17:55:05.191Z,2.43
2019-01-14T17:57:36.045Z,2.13
2019-01-14T18:00:06.102Z,3.50
2019-01-14T18:02:33.886Z,1.97
2019-01-14T18:05:02.021Z,3.30
2019-01-14T18:07:30.211Z,2.60
2019-01-14T18:09:57.792Z,2.93
2019-01-14T18:12:25.542Z,2.60
2019-01-14T18:14:53.722Z,2.30
2019-01-14T18:17:21.225Z,2.30
2019-01-14T18:19:49.421Z,2.20
2019-01-14T18:22:16.954Z,2.43
2019-01-14T18:24:44.765Z,2.10
2019-01-14T18:27:12.607Z,3.00
2019-01-14T18:29:40.515Z,2.80
2019-01-14T18:32:08.264Z,3.70
2019-01-14T18:34:36.105Z,2.50
2019-01-14T18:37:03.899Z,2.10
2019-01-14T18:39:31.619Z,2.43
2019-01-14T18:41:59.182Z,2.80
2019-01-14T18:44:27.106Z,2.27
2019-01-14T18:46:54.848Z,2.10
2019-01-14T18:49:23.302Z,4.00
2019-01-14T18:51:51.184Z,1.97
2019-01-14T18:54:19.503Z,2.47
2019-01-14T18:56:47.202Z,2.57
2019-01-14T18:59:14.955Z,2.40
2019-01-14T19:01:44.630Z,2.50
2019-01-14T19:04:12.719Z,2.70
2019-01-14T19:06:40.624Z,3.10
2019-01-14T19:09:08.312Z,3.07
2019-01-14T19:11:35.937Z,3.33
2019-01-14T19:14:03.843Z,3.17
2019-01-14T19:16:31.413Z,3.17
2019-01-14T19:18:59.458Z,3.13
2019-01-14T19:21:27.403Z,4.00
2019-01-14T19:23:55.706Z,4.30
2019-01-14T19:26:23.570Z,5.10
2019-01-14T19:28:51.090Z,4.27
2019-01-14T19:31:18.651Z,5.43
2019-01-14T19:33:46.198Z,4.80
2019-01-14T19:36:13.850Z,4.83
2019-01-14T19:38:41.423Z,3.50
2019-01-14T19:41:09.562Z,4.10
2019-01-14T19:43:37.015Z,4.40
2019-01-14T19:46:04.946Z,7.50
2019-01-14T19:48:32.794Z,9.87
2019-01-14T19:51:00.590Z,5.13
2019-01-14T19:53:28.506Z,6.33
2019-01-14T19:55:56.064Z,7.27
2019-01-14T19:58:23.643Z,8.07
2019-01-14T20:00:51.316Z,6.13
2019-01-14T20:03:20.398Z,3.80
2019-01-14T20:05:48.269Z,4.27
2019-01-14T20:08:17.795Z,4.30
2019-01-14T20:10:45.885Z,4.47
2019-01-14T20:13:13.738Z,4.57
2019-01-14T20:15:41.644Z,3.50
2019-01-14T20:18:09.150Z,3.30
2019-01-14T20:20:37.094Z,4.30
2019-01-14T20:23:05.010Z,3.30
2019-01-14T20:25:33.252Z,3.20
2019-01-14T20:28:01.059Z,3.70
2019-01-14T20:30:33.714Z,3.27
2019-01-14T20:33:02.450Z,3.60
2019-01-14T20:35:30.034Z,2.03
2019-01-14T20:37:57.521Z,3.50
2019-01-14T20:40:24.987Z,3.40
2019-01-14T20:42:52.802Z,3.10
2019-01-14T20:45:20.347Z,5.13
2019-01-14T20:47:48.516Z,4.00
2019-01-14T20:50:17.273Z,5.10
2019-01-14T20:52:44.935Z,4.07
2019-01-14T20:55:13.071Z,3.50
2019-01-14T20:57:40.608Z,4.60
2019-01-14T21:00:20.990Z,4.90
2019-01-14T21:02:48.902Z,4.73
2019-01-14T21:05:17.618Z,4.83
2019-01-14T21:07:45.409Z,3.60
2019-01-14T21:10:13.612Z,5.17
2019-01-14T21:12:41.617Z,4.97
2019-01-14T21:15:10.099Z,4.30
2019-01-14T21:17:38.011Z,3.90
2019-01-14T21:20:09.197Z,4.40
2019-01-14T21:22:37.218Z,4.70
2019-01-14T21:25:05.274Z,4.80
2019-01-14T21:27:33.226Z,4.77
2019-01-14T21:30:01.025Z,4.73
2019-01-14T21:32:29.234Z,5.07
2019-01-14T21:34:56.801Z,4.73
2019-01-14T21:37:24.510Z,4.40
2019-01-14T21:39:52.564Z,5.77
2019-01-14T21:42:20.486Z,5.37
2019-01-14T21:44:48.023Z,4.60
2019-01-14T21:47:15.611Z,5.23
2019-01-14T21:49:43.205Z,6.80
2019-01-14T21:52:11.014Z,8.10
2019-01-14T21:54:39.258Z,7.63
2019-01-14T21:57:07.135Z,5.40
2019-01-14T21:59:34.763Z,7.10
2019-01-14T22:02:02.382Z,8.30
2019-01-14T22:04:29.974Z,10.20
2019-01-14T22:06:57.766Z,6.30
2019-01-14T22:09:25.254Z,5.87
2019-01-14T22:11:53.194Z,3.73
2019-01-14T22:14:21.138Z,4.90
2019-01-14T22:16:49.070Z,5.23
2019-01-14T22:19:16.690Z,5.87
2019-01-14T22:21:44.462Z,5.10
2019-01-14T22:24:12.330Z,5.20
2019-01-14T22:26:39.899Z,4.27
2019-01-14T22:29:07.510Z,4.37
2019-01-14T22:31:37.179Z,3.43
2019-01-14T22:34:05.120Z,3.00
2019-01-14T22:36:32.763Z,2.80
2019-01-14T22:39:00.574Z,2.80
2019-01-14T22:41:28.526Z,3.90
2019-01-14T22:43:56.614Z,3.90
2019-01-14T22:46:24.352Z,3.50
2019-01-14T22:48:52.530Z,4.80
2019-01-14T22:51:20.018Z,4.37
2019-01-14T22:53:48.072Z,4.50
2019-01-14T22:56:16.022Z,5.60
2019-01-14T22:58:43.558Z,4.60
2019-01-14T23:01:33.747Z,4.77
2019-01-14T23:04:01.899Z,3.60
2019-01-14T23:06:30.298Z,4.70
2019-01-14T23:08:58.681Z,7.90
2019-01-14T23:11:26.233Z,4.50
2019-01-14T23:13:53.742Z,5.23
2019-01-14T23:16:21.574Z,5.13
2019-01-14T23:18:49.160Z,5.60
2019-01-14T23:21:17.060Z,4.63
2019-01-14T23:23:44.978Z,4.10
2019-01-14T23:26:12.546Z,3.60
2019-01-14T23:28:40.026Z,3.83
2019-01-14T23:31:07.517Z,3.60
2019-01-14T23:33:35.342Z,4.00
2019-01-14T23:36:03.089Z,3.87
2019-01-14T23:38:31.022Z,2.97
2019-01-14T23:40:59.070Z,2.70
2019-01-14T23:43:26.806Z,2.60
2019-01-14T23:45:54.404Z,3.37
2019-01-14T23:48:22.292Z,2.90
2019-01-14T23:50:50.204Z,3.13
2019-01-14T23:53:17.798Z,2.43
2019-01-14T23:55:45.606Z,1.80
2019-01-14T23:58:13.110Z,2.20
